sensor_id;sensor_type;location;lat;lon;timestamp;pressure;altitude;pressure_sealevel;temperature;humidity
80654;BME280;70020;45.524;10.240;2023-05-10T00:00:04;99811.72;;;16.30;71.06
80654;BME280;70020;45.524;10.240;2023-05-10T00:02:30;99815.06;;;16.22;71.13
80654;BME280;70020;45.524;10.240;2023-05-10T00:04:55;99813.84;;;16.17;70.08
80654;BME280;70020;45.524;10.240;2023-05-10T00:07:21;99811.63;;;16.22;72.38
80654;BME280;70020;45.524;10.240;2023-05-10T00:09:46;99814.53;;;16.19;72.27
80654;BME280;70020;45.524;10.240;2023-05-10T00:12:12;99818.50;;;16.23;73.06
80654;BME280;70020;45.524;10.240;2023-05-10T00:14:38;99827.13;;;16.23;72.33
80654;BME280;70020;45.524;10.240;2023-05-10T00:17:04;99829.59;;;16.25;72.23
80654;BME280;70020;45.524;10.240;2023-05-10T00:19:29;99819.53;;;16.30;73.08
80654;BME280;70020;45.524;10.240;2023-05-10T00:21:55;99831.91;;;16.28;72.48
80654;BME280;70020;45.524;10.240;2023-05-10T00:24:20;99830.28;;;16.27;72.97
80654;BME280;70020;45.524;10.240;2023-05-10T00:26:46;99824.06;;;16.28;72.34
80654;BME280;70020;45.524;10.240;2023-05-10T00:29:12;99824.84;;;16.20;73.27
80654;BME280;70020;45.524;10.240;2023-05-10T00:31:37;99819.75;;;16.19;73.01
80654;BME280;70020;45.524;10.240;2023-05-10T00:34:03;99824.97;;;16.19;73.18
80654;BME280;70020;45.524;10.240;2023-05-10T00:36:29;99816.31;;;16.18;71.94
80654;BME280;70020;45.524;10.240;2023-05-10T00:38:54;99816.19;;;16.20;74.10
80654;BME280;70020;45.524;10.240;2023-05-10T00:41:20;99799.53;;;16.21;71.91
80654;BME280;70020;45.524;10.240;2023-05-10T00:43:46;99795.97;;;16.22;73.43
80654;BME280;70020;45.524;10.240;2023-05-10T00:46:11;99788.13;;;16.22;73.82
80654;BME280;70020;45.524;10.240;2023-05-10T00:48:38;99791.47;;;16.14;72.19
80654;BME280;70020;45.524;10.240;2023-05-10T00:51:03;99777.69;;;16.22;74.60
80654;BME280;70020;45.524;10.240;2023-05-10T00:53:30;99775.22;;;16.03;72.07
80654;BME280;70020;45.524;10.240;2023-05-10T00:55:56;99777.75;;;16.12;71.91
80654;BME280;70020;45.524;10.240;2023-05-10T00:58:22;99774.50;;;16.10;72.81
80654;BME280;70020;45.524;10.240;2023-05-10T01:00:48;99767.09;;;16.06;72.19
80654;BME280;70020;45.524;10.240;2023-05-10T01:03:14;99768.97;;;16.13;72.29
80654;BME280;70020;45.524;10.240;2023-05-10T01:05:40;99765.00;;;16.09;74.57
80654;BME280;70020;45.524;10.240;2023-05-10T01:08:05;99763.00;;;16.03;72.97
80654;BME280;70020;45.524;10.240;2023-05-10T01:10:31;99761.72;;;16.07;74.99
80654;BME280;70020;45.524;10.240;2023-05-10T01:12:57;99760.69;;;16.00;75.50
80654;BME280;70020;45.524;10.240;2023-05-10T01:15:24;99757.78;;;16.03;73.79
80654;BME280;70020;45.524;10.240;2023-05-10T01:17:50;99753.97;;;15.98;74.32
80654;BME280;70020;45.524;10.240;2023-05-10T01:20:16;99755.47;;;16.00;73.44
80654;BME280;70020;45.524;10.240;2023-05-10T01:28:39;99751.75;;;16.03;72.50
80654;BME280;70020;45.524;10.240;2023-05-10T01:33:25;99747.03;;;15.89;74.55
80654;BME280;70020;45.524;10.240;2023-05-10T01:38:29;99751.06;;;15.83;72.74
80654;BME280;70020;45.524;10.240;2023-05-10T01:43:28;99740.13;;;15.80;72.62
80654;BME280;70020;45.524;10.240;2023-05-10T01:46:07;99745.63;;;15.77;74.93
80654;BME280;70020;45.524;10.240;2023-05-10T01:48:55;99743.84;;;15.77;75.36
80654;BME280;70020;45.524;10.240;2023-05-10T01:51:25;99738.47;;;15.79;75.29
80654;BME280;70020;45.524;10.240;2023-05-10T01:53:51;99747.03;;;15.71;75.13
80654;BME280;70020;45.524;10.240;2023-05-10T01:56:19;99746.91;;;15.73;73.79
80654;BME280;70020;45.524;10.240;2023-05-10T01:58:44;99741.97;;;15.70;76.08
80654;BME280;70020;45.524;10.240;2023-05-10T02:01:12;99746.97;;;15.63;76.91
80654;BME280;70020;45.524;10.240;2023-05-10T02:03:38;99740.75;;;15.64;73.67
80654;BME280;70020;45.524;10.240;2023-05-10T02:06:05;99739.81;;;15.65;75.65
80654;BME280;70020;45.524;10.240;2023-05-10T02:08:31;99753.28;;;15.60;75.98
80654;BME280;70020;45.524;10.240;2023-05-10T02:10:58;99756.50;;;15.54;75.72
80654;BME280;70020;45.524;10.240;2023-05-10T02:13:25;99752.47;;;15.60;75.78
80654;BME280;70020;45.524;10.240;2023-05-10T02:15:51;99754.94;;;15.61;75.61
80654;BME280;70020;45.524;10.240;2023-05-10T02:18:18;99757.97;;;15.57;78.23
80654;BME280;70020;45.524;10.240;2023-05-10T02:20:47;99754.25;;;15.59;78.17
80654;BME280;70020;45.524;10.240;2023-05-10T02:23:13;99760.34;;;15.50;76.28
80654;BME280;70020;45.524;10.240;2023-05-10T02:25:39;99757.44;;;15.53;77.81
80654;BME280;70020;45.524;10.240;2023-05-10T02:28:05;99763.53;;;15.44;77.84
80654;BME280;70020;45.524;10.240;2023-05-10T02:30:32;99772.25;;;15.53;77.06
80654;BME280;70020;45.524;10.240;2023-05-10T02:32:59;99767.88;;;15.53;76.11
80654;BME280;70020;45.524;10.240;2023-05-10T02:35:25;99771.44;;;15.52;76.22
80654;BME280;70020;45.524;10.240;2023-05-10T02:37:51;99768.25;;;15.58;77.71
80654;BME280;70020;45.524;10.240;2023-05-10T02:40:17;99766.75;;;15.56;76.47
80654;BME280;70020;45.524;10.240;2023-05-10T02:42:43;99767.22;;;15.51;75.98
80654;BME280;70020;45.524;10.240;2023-05-10T02:45:13;99764.06;;;15.48;74.93
80654;BME280;70020;45.524;10.240;2023-05-10T02:47:39;99767.66;;;15.37;75.61
80654;BME280;70020;45.524;10.240;2023-05-10T02:50:05;99763.38;;;15.46;77.72
80654;BME280;70020;45.524;10.240;2023-05-10T02:52:36;99761.78;;;15.35;75.82
80654;BME280;70020;45.524;10.240;2023-05-10T02:55:02;99760.06;;;15.44;77.71
80654;BME280;70020;45.524;10.240;2023-05-10T02:57:33;99753.38;;;15.41;77.47
80654;BME280;70020;45.524;10.240;2023-05-10T03:00:03;99753.25;;;15.33;78.32
80654;BME280;70020;45.524;10.240;2023-05-10T03:02:29;99755.31;;;15.39;77.64
80654;BME280;70020;45.524;10.240;2023-05-10T03:04:56;99752.31;;;15.34;78.95
80654;BME280;70020;45.524;10.240;2023-05-10T03:07:21;99752.97;;;15.36;77.69
80654;BME280;70020;45.524;10.240;2023-05-10T03:09:48;99752.69;;;15.39;78.78
80654;BME280;70020;45.524;10.240;2023-05-10T03:12:15;99746.69;;;15.29;78.01
80654;BME280;70020;45.524;10.240;2023-05-10T03:14:49;99756.25;;;15.38;78.12
80654;BME280;70020;45.524;10.240;2023-05-10T03:17:22;99751.34;;;15.35;77.35
80654;BME280;70020;45.524;10.240;2023-05-10T03:19:55;99748.75;;;15.35;76.72
80654;BME280;70020;45.524;10.240;2023-05-10T03:22:31;99747.38;;;15.31;78.85
80654;BME280;70020;45.524;10.240;2023-05-10T03:24:57;99743.97;;;15.31;78.97
80654;BME280;70020;45.524;10.240;2023-05-10T03:27:23;99737.63;;;15.33;78.43
80654;BME280;70020;45.524;10.240;2023-05-10T03:29:50;99746.31;;;15.24;80.04
80654;BME280;70020;45.524;10.240;2023-05-10T03:32:16;99741.81;;;15.17;79.50
80654;BME280;70020;45.524;10.240;2023-05-10T03:34:42;99744.00;;;15.21;80.45
80654;BME280;70020;45.524;10.240;2023-05-10T03:37:08;99739.75;;;15.20;81.29
80654;BME280;70020;45.524;10.240;2023-05-10T03:39:34;99736.59;;;15.17;81.82
80654;BME280;70020;45.524;10.240;2023-05-10T03:42:00;99740.59;;;15.21;81.98
80654;BME280;70020;45.524;10.240;2023-05-10T03:44:25;99735.13;;;15.14;82.74
80654;BME280;70020;45.524;10.240;2023-05-10T03:46:50;99737.97;;;15.21;82.35
80654;BME280;70020;45.524;10.240;2023-05-10T03:49:16;99724.56;;;15.16;82.41
80654;BME280;70020;45.524;10.240;2023-05-10T03:51:42;99732.66;;;15.13;82.28
80654;BME280;70020;45.524;10.240;2023-05-10T03:54:07;99730.88;;;15.13;82.15
80654;BME280;70020;45.524;10.240;2023-05-10T03:56:32;99724.84;;;15.13;82.11
80654;BME280;70020;45.524;10.240;2023-05-10T03:58:58;99729.38;;;15.11;82.02
80654;BME280;70020;45.524;10.240;2023-05-10T04:01:24;99728.94;;;15.15;81.57
80654;BME280;70020;45.524;10.240;2023-05-10T04:03:49;99724.00;;;15.12;81.61
80654;BME280;70020;45.524;10.240;2023-05-10T04:06:15;99732.56;;;15.05;80.17
80654;BME280;70020;45.524;10.240;2023-05-10T04:08:41;99733.53;;;15.04;81.66
80654;BME280;70020;45.524;10.240;2023-05-10T04:11:07;99724.38;;;14.99;82.09
80654;BME280;70020;45.524;10.240;2023-05-10T04:13:32;99721.59;;;15.01;81.71
80654;BME280;70020;45.524;10.240;2023-05-10T04:15:58;99718.75;;;14.94;80.68
80654;BME280;70020;45.524;10.240;2023-05-10T04:18:23;99721.88;;;14.98;80.48
80654;BME280;70020;45.524;10.240;2023-05-10T04:20:49;99717.06;;;15.03;81.21
80654;BME280;70020;45.524;10.240;2023-05-10T04:23:15;99713.63;;;15.02;80.71
80654;BME280;70020;45.524;10.240;2023-05-10T04:25:41;99708.56;;;15.01;81.91
80654;BME280;70020;45.524;10.240;2023-05-10T04:28:07;99707.91;;;14.99;82.04
80654;BME280;70020;45.524;10.240;2023-05-10T04:30:32;99709.91;;;15.05;82.48
80654;BME280;70020;45.524;10.240;2023-05-10T04:32:58;99710.06;;;15.04;82.56
80654;BME280;70020;45.524;10.240;2023-05-10T04:35:23;99708.06;;;14.97;83.21
80654;BME280;70020;45.524;10.240;2023-05-10T04:37:49;99707.03;;;15.08;82.20
80654;BME280;70020;45.524;10.240;2023-05-10T04:40:15;99707.41;;;15.13;82.72
80654;BME280;70020;45.524;10.240;2023-05-10T04:42:40;99714.41;;;15.13;82.25
80654;BME280;70020;45.524;10.240;2023-05-10T04:45:09;99713.47;;;15.14;82.54
80654;BME280;70020;45.524;10.240;2023-05-10T04:47:35;99713.31;;;15.15;82.43
80654;BME280;70020;45.524;10.240;2023-05-10T04:50:02;99710.47;;;15.09;81.57
80654;BME280;70020;45.524;10.240;2023-05-10T04:52:27;99706.75;;;15.11;81.85
80654;BME280;70020;45.524;10.240;2023-05-10T04:54:53;99708.97;;;15.06;82.23
80654;BME280;70020;45.524;10.240;2023-05-10T04:57:18;99710.75;;;15.06;82.78
80654;BME280;70020;45.524;10.240;2023-05-10T04:59:44;99724.59;;;15.06;82.52
80654;BME280;70020;45.524;10.240;2023-05-10T05:02:09;99723.94;;;15.04;82.74
80654;BME280;70020;45.524;10.240;2023-05-10T05:04:35;99725.00;;;15.11;82.78
80654;BME280;70020;45.524;10.240;2023-05-10T05:07:01;99720.72;;;15.10;82.29
80654;BME280;70020;45.524;10.240;2023-05-10T05:09:26;99727.59;;;15.11;82.26
80654;BME280;70020;45.524;10.240;2023-05-10T05:11:51;99723.06;;;15.13;81.71
80654;BME280;70020;45.524;10.240;2023-05-10T05:14:17;99728.44;;;15.12;82.38
80654;BME280;70020;45.524;10.240;2023-05-10T05:16:42;99730.75;;;15.05;82.20
80654;BME280;70020;45.524;10.240;2023-05-10T05:19:08;99741.88;;;15.07;82.22
80654;BME280;70020;45.524;10.240;2023-05-10T05:21:33;99742.69;;;15.08;82.01
80654;BME280;70020;45.524;10.240;2023-05-10T05:24:00;99738.16;;;15.10;81.95
80654;BME280;70020;45.524;10.240;2023-05-10T05:26:29;99740.03;;;15.17;81.37
80654;BME280;70020;45.524;10.240;2023-05-10T05:28:54;99744.69;;;15.23;81.56
80654;BME280;70020;45.524;10.240;2023-05-10T05:31:20;99736.88;;;15.23;81.88
80654;BME280;70020;45.524;10.240;2023-05-10T05:33:45;99742.53;;;15.19;82.24
80654;BME280;70020;45.524;10.240;2023-05-10T05:36:11;99746.47;;;15.23;81.47
80654;BME280;70020;45.524;10.240;2023-05-10T05:38:36;99751.25;;;15.27;81.64
80654;BME280;70020;45.524;10.240;2023-05-10T05:41:02;99746.03;;;15.27;81.91
80654;BME280;70020;45.524;10.240;2023-05-10T05:43:28;99755.88;;;15.33;81.54
80654;BME280;70020;45.524;10.240;2023-05-10T05:45:53;99766.59;;;15.30;81.77
80654;BME280;70020;45.524;10.240;2023-05-10T05:48:19;99773.81;;;15.36;81.58
80654;BME280;70020;45.524;10.240;2023-05-10T05:50:45;99767.78;;;15.36;81.53
80654;BME280;70020;45.524;10.240;2023-05-10T05:53:10;99771.38;;;15.35;81.48
80654;BME280;70020;45.524;10.240;2023-05-10T05:55:36;99772.28;;;15.43;81.67
80654;BME280;70020;45.524;10.240;2023-05-10T05:58:01;99770.66;;;15.42;81.10
80654;BME280;70020;45.524;10.240;2023-05-10T06:00:27;99773.13;;;15.44;81.38
80654;BME280;70020;45.524;10.240;2023-05-10T06:02:53;99776.13;;;15.49;81.69
80654;BME280;70020;45.524;10.240;2023-05-10T06:05:18;99773.25;;;15.52;81.62
80654;BME280;70020;45.524;10.240;2023-05-10T06:07:45;99775.88;;;15.42;81.10
80654;BME280;70020;45.524;10.240;2023-05-10T06:10:11;99777.66;;;15.42;82.12
80654;BME280;70020;45.524;10.240;2023-05-10T06:12:36;99791.63;;;15.41;82.09
80654;BME280;70020;45.524;10.240;2023-05-10T06:15:01;99786.59;;;15.39;81.51
80654;BME280;70020;45.524;10.240;2023-05-10T06:17:27;99791.78;;;15.39;81.81
80654;BME280;70020;45.524;10.240;2023-05-10T06:19:53;99794.25;;;15.41;82.32
80654;BME280;70020;45.524;10.240;2023-05-10T06:26:53;99798.63;;;15.40;80.95
80654;BME280;70020;45.524;10.240;2023-05-10T06:29:18;99802.06;;;15.41;81.47
80654;BME280;70020;45.524;10.240;2023-05-10T06:31:45;99797.72;;;15.32;82.16
80654;BME280;70020;45.524;10.240;2023-05-10T06:34:11;99802.66;;;15.35;82.52
80654;BME280;70020;45.524;10.240;2023-05-10T06:36:37;99802.69;;;15.25;82.76
80654;BME280;70020;45.524;10.240;2023-05-10T06:39:03;99798.75;;;15.21;82.71
80654;BME280;70020;45.524;10.240;2023-05-10T06:41:28;99805.19;;;15.17;83.25
80654;BME280;70020;45.524;10.240;2023-05-10T06:43:54;99807.28;;;15.14;83.45
80654;BME280;70020;45.524;10.240;2023-05-10T06:46:20;99807.13;;;15.15;83.37
80654;BME280;70020;45.524;10.240;2023-05-10T06:48:45;99808.63;;;15.18;83.64
80654;BME280;70020;45.524;10.240;2023-05-10T06:51:11;99809.53;;;15.26;83.50
80654;BME280;70020;45.524;10.240;2023-05-10T06:53:36;99805.75;;;15.21;83.18
80654;BME280;70020;45.524;10.240;2023-05-10T06:56:02;99807.25;;;15.23;82.88
80654;BME280;70020;45.524;10.240;2023-05-10T06:58:28;99804.63;;;15.23;83.97
80654;BME280;70020;45.524;10.240;2023-05-10T07:00:54;99799.81;;;15.28;83.80
80654;BME280;70020;45.524;10.240;2023-05-10T07:03:19;99809.13;;;15.31;83.57
80654;BME280;70020;45.524;10.240;2023-05-10T07:05:45;99808.31;;;15.30;83.43
80654;BME280;70020;45.524;10.240;2023-05-10T07:08:11;99802.28;;;15.30;83.53
80654;BME280;70020;45.524;10.240;2023-05-10T07:10:36;99808.53;;;15.37;83.71
80654;BME280;70020;45.524;10.240;2023-05-10T07:13:05;99811.00;;;15.38;83.80
80654;BME280;70020;45.524;10.240;2023-05-10T07:15:31;99816.75;;;15.42;83.74
80654;BME280;70020;45.524;10.240;2023-05-10T07:17:57;99813.22;;;15.33;82.82
80654;BME280;70020;45.524;10.240;2023-05-10T07:20:22;99806.09;;;15.35;82.57
80654;BME280;70020;45.524;10.240;2023-05-10T07:22:51;99813.31;;;15.41;83.42
80654;BME280;70020;45.524;10.240;2023-05-10T07:25:17;99820.63;;;15.47;82.86
80654;BME280;70020;45.524;10.240;2023-05-10T07:27:43;99813.91;;;15.45;82.42
80654;BME280;70020;45.524;10.240;2023-05-10T07:30:09;99819.63;;;15.48;82.26
80654;BME280;70020;45.524;10.240;2023-05-10T07:32:35;99815.78;;;15.43;82.65
80654;BME280;70020;45.524;10.240;2023-05-10T07:35:01;99826.94;;;15.45;81.78
80654;BME280;70020;45.524;10.240;2023-05-10T07:37:27;99827.19;;;15.42;82.16
80654;BME280;70020;45.524;10.240;2023-05-10T07:39:52;99824.44;;;15.43;82.34
80654;BME280;70020;45.524;10.240;2023-05-10T07:42:18;99824.19;;;15.46;82.25
80654;BME280;70020;45.524;10.240;2023-05-10T07:44:44;99834.59;;;15.46;82.04
80654;BME280;70020;45.524;10.240;2023-05-10T07:47:10;99826.50;;;15.49;82.61
80654;BME280;70020;45.524;10.240;2023-05-10T07:49:37;99830.19;;;15.56;82.45
80654;BME280;70020;45.524;10.240;2023-05-10T07:52:03;99829.63;;;15.53;82.04
80654;BME280;70020;45.524;10.240;2023-05-10T07:54:29;99834.16;;;15.51;81.90
80654;BME280;70020;45.524;10.240;2023-05-10T07:56:54;99836.19;;;15.57;82.20
80654;BME280;70020;45.524;10.240;2023-05-10T07:59:20;99839.53;;;15.49;82.14
80654;BME280;70020;45.524;10.240;2023-05-10T08:01:46;99839.09;;;15.54;82.52
80654;BME280;70020;45.524;10.240;2023-05-10T08:04:12;99840.06;;;15.53;82.11
80654;BME280;70020;45.524;10.240;2023-05-10T08:06:37;99845.28;;;15.53;82.93
80654;BME280;70020;45.524;10.240;2023-05-10T08:09:03;99845.81;;;15.56;82.29
80654;BME280;70020;45.524;10.240;2023-05-10T08:11:29;99839.50;;;15.59;82.23
80654;BME280;70020;45.524;10.240;2023-05-10T08:13:55;99839.22;;;15.52;82.12
80654;BME280;70020;45.524;10.240;2023-05-10T08:16:20;99847.59;;;15.56;81.68
80654;BME280;70020;45.524;10.240;2023-05-10T08:18:47;99848.13;;;15.59;82.05
80654;BME280;70020;45.524;10.240;2023-05-10T08:21:13;99845.00;;;15.56;81.60
80654;BME280;70020;45.524;10.240;2023-05-10T08:23:38;99846.34;;;15.60;81.91
80654;BME280;70020;45.524;10.240;2023-05-10T08:26:04;99849.94;;;15.59;81.68
80654;BME280;70020;45.524;10.240;2023-05-10T08:28:30;99848.81;;;15.61;82.76
80654;BME280;70020;45.524;10.240;2023-05-10T08:30:56;99845.22;;;15.62;81.75
80654;BME280;70020;45.524;10.240;2023-05-10T08:33:21;99841.78;;;15.62;82.10
80654;BME280;70020;45.524;10.240;2023-05-10T08:35:47;99845.22;;;15.62;81.78
80654;BME280;70020;45.524;10.240;2023-05-10T08:38:12;99848.22;;;15.68;81.86
80654;BME280;70020;45.524;10.240;2023-05-10T08:40:41;99851.22;;;15.73;81.29
80654;BME280;70020;45.524;10.240;2023-05-10T08:43:09;99848.63;;;15.73;81.73
80654;BME280;70020;45.524;10.240;2023-05-10T08:45:44;99843.78;;;15.78;81.21
80654;BME280;70020;45.524;10.240;2023-05-10T08:48:13;99844.91;;;15.75;81.42
80654;BME280;70020;45.524;10.240;2023-05-10T08:50:41;99843.13;;;15.76;81.71
80654;BME280;70020;45.524;10.240;2023-05-10T08:53:10;99844.19;;;15.83;81.16
80654;BME280;70020;45.524;10.240;2023-05-10T08:55:37;99840.75;;;15.82;80.86
80654;BME280;70020;45.524;10.240;2023-05-10T08:58:04;99849.47;;;15.91;80.40
80654;BME280;70020;45.524;10.240;2023-05-10T09:00:30;99844.19;;;16.00;80.88
80654;BME280;70020;45.524;10.240;2023-05-10T09:03:00;99843.91;;;16.03;81.05
80654;BME280;70020;45.524;10.240;2023-05-10T09:05:25;99850.19;;;16.10;81.38
80654;BME280;70020;45.524;10.240;2023-05-10T09:07:51;99844.81;;;16.12;80.80
80654;BME280;70020;45.524;10.240;2023-05-10T09:10:17;99835.41;;;16.19;80.20
80654;BME280;70020;45.524;10.240;2023-05-10T09:12:43;99841.22;;;16.13;79.18
80654;BME280;70020;45.524;10.240;2023-05-10T09:15:11;99847.34;;;16.21;80.34
80654;BME280;70020;45.524;10.240;2023-05-10T09:17:38;99848.34;;;16.20;79.44
80654;BME280;70020;45.524;10.240;2023-05-10T09:20:05;99850.78;;;16.22;80.43
80654;BME280;70020;45.524;10.240;2023-05-10T09:22:31;99845.94;;;16.27;79.61
80654;BME280;70020;45.524;10.240;2023-05-10T09:25:14;99848.56;;;16.27;79.32
80654;BME280;70020;45.524;10.240;2023-05-10T09:27:41;99848.47;;;16.19;79.93
80654;BME280;70020;45.524;10.240;2023-05-10T09:30:08;99839.38;;;16.23;80.11
80654;BME280;70020;45.524;10.240;2023-05-10T09:32:43;99843.31;;;16.27;80.49
80654;BME280;70020;45.524;10.240;2023-05-10T09:35:35;99849.44;;;16.35;80.53
80654;BME280;70020;45.524;10.240;2023-05-10T09:38:04;99850.25;;;16.36;79.83
80654;BME280;70020;45.524;10.240;2023-05-10T09:40:30;99839.44;;;16.31;79.57
80654;BME280;70020;45.524;10.240;2023-05-10T09:43:11;99836.84;;;16.31;80.10
80654;BME280;70020;45.524;10.240;2023-05-10T09:45:36;99843.53;;;16.33;80.24
80654;BME280;70020;45.524;10.240;2023-05-10T09:48:02;99845.19;;;16.34;78.92
80654;BME280;70020;45.524;10.240;2023-05-10T09:50:29;99835.94;;;16.40;79.38
80654;BME280;70020;45.524;10.240;2023-05-10T09:52:57;99835.84;;;16.50;79.93
80654;BME280;70020;45.524;10.240;2023-05-10T09:58:05;99833.25;;;16.50;79.05
80654;BME280;70020;45.524;10.240;2023-05-10T10:00:39;99836.69;;;16.50;79.46
80654;BME280;70020;45.524;10.240;2023-05-10T10:03:05;99832.41;;;16.49;79.58
80654;BME280;70020;45.524;10.240;2023-05-10T10:05:33;99843.31;;;16.45;78.96
80654;BME280;70020;45.524;10.240;2023-05-10T10:08:00;99839.75;;;16.46;79.41
80654;BME280;70020;45.524;10.240;2023-05-10T10:10:27;99829.38;;;16.36;78.54
80654;BME280;70020;45.524;10.240;2023-05-10T10:12:54;99827.88;;;16.33;78.49
80654;BME280;70020;45.524;10.240;2023-05-10T10:15:21;99831.78;;;16.29;78.63
80654;BME280;70020;45.524;10.240;2023-05-10T10:17:48;99830.78;;;16.30;78.78
80654;BME280;70020;45.524;10.240;2023-05-10T10:20:15;99837.38;;;16.34;78.89
80654;BME280;70020;45.524;10.240;2023-05-10T10:22:41;99827.44;;;16.38;78.81
80654;BME280;70020;45.524;10.240;2023-05-10T10:25:08;99819.13;;;16.43;79.62
80654;BME280;70020;45.524;10.240;2023-05-10T10:30:45;99822.06;;;16.40;79.46
80654;BME280;70020;45.524;10.240;2023-05-10T10:33:33;99824.72;;;16.48;79.38
80654;BME280;70020;45.524;10.240;2023-05-10T10:36:02;99830.94;;;16.47;79.59
80654;BME280;70020;45.524;10.240;2023-05-10T10:38:55;99830.41;;;16.43;79.06
80654;BME280;70020;45.524;10.240;2023-05-10T10:44:25;99839.31;;;16.32;79.54
80654;BME280;70020;45.524;10.240;2023-05-10T10:57:51;99831.22;;;16.26;79.88
80654;BME280;70020;45.524;10.240;2023-05-10T11:00:37;99830.66;;;16.32;79.32
80654;BME280;70020;45.524;10.240;2023-05-10T11:03:09;99830.03;;;16.38;80.26
80654;BME280;70020;45.524;10.240;2023-05-10T11:15:54;99814.44;;;16.46;79.65
80654;BME280;70020;45.524;10.240;2023-05-10T11:18:29;99818.69;;;16.47;78.92
80654;BME280;70020;45.524;10.240;2023-05-10T11:20:59;99817.34;;;16.43;79.82
80654;BME280;70020;45.524;10.240;2023-05-10T11:23:30;99809.53;;;16.43;79.88
80654;BME280;70020;45.524;10.240;2023-05-10T11:25:56;99813.91;;;16.43;79.41
80654;BME280;70020;45.524;10.240;2023-05-10T11:28:22;99811.00;;;16.46;79.96
80654;BME280;70020;45.524;10.240;2023-05-10T11:30:48;99805.63;;;16.47;79.81
80654;BME280;70020;45.524;10.240;2023-05-10T11:33:18;99808.91;;;16.49;79.73
80654;BME280;70020;45.524;10.240;2023-05-10T11:35:45;99804.97;;;16.45;79.62
80654;BME280;70020;45.524;10.240;2023-05-10T11:38:12;99803.84;;;16.48;80.43
80654;BME280;70020;45.524;10.240;2023-05-10T11:40:40;99805.13;;;16.44;79.71
80654;BME280;70020;45.524;10.240;2023-05-10T11:43:05;99810.19;;;16.45;79.52
80654;BME280;70020;45.524;10.240;2023-05-10T11:45:32;99817.19;;;16.45;79.00
80654;BME280;70020;45.524;10.240;2023-05-10T11:47:58;99810.81;;;16.39;79.47
80654;BME280;70020;45.524;10.240;2023-05-10T11:50:27;99813.03;;;16.34;80.03
80654;BME280;70020;45.524;10.240;2023-05-10T11:52:57;99819.66;;;16.28;80.28
80654;BME280;70020;45.524;10.240;2023-05-10T11:55:24;99816.97;;;16.38;79.99
80654;BME280;70020;45.524;10.240;2023-05-10T11:57:52;99814.25;;;16.40;79.63
80654;BME280;70020;45.524;10.240;2023-05-10T12:00:18;99819.38;;;16.31;79.24
80654;BME280;70020;45.524;10.240;2023-05-10T12:02:45;99821.75;;;16.43;80.38
80654;BME280;70020;45.524;10.240;2023-05-10T12:05:10;99825.84;;;16.45;80.32
80654;BME280;70020;45.524;10.240;2023-05-10T12:07:36;99819.69;;;16.46;80.54
80654;BME280;70020;45.524;10.240;2023-05-10T12:10:25;99819.50;;;16.48;80.64
80654;BME280;70020;45.524;10.240;2023-05-10T12:12:52;99814.28;;;16.48;80.32
80654;BME280;70020;45.524;10.240;2023-05-10T12:15:21;99808.41;;;16.46;79.92
80654;BME280;70020;45.524;10.240;2023-05-10T12:17:48;99809.19;;;16.56;80.43
80654;BME280;70020;45.524;10.240;2023-05-10T12:20:14;99812.81;;;16.63;81.47
80654;BME280;70020;45.524;10.240;2023-05-10T12:22:43;99809.59;;;16.69;80.29
80654;BME280;70020;45.524;10.240;2023-05-10T12:25:09;99813.47;;;16.65;79.75
80654;BME280;70020;45.524;10.240;2023-05-10T12:27:35;99811.84;;;16.64;80.34
80654;BME280;70020;45.524;10.240;2023-05-10T12:30:02;99814.41;;;16.56;79.09
80654;BME280;70020;45.524;10.240;2023-05-10T12:32:38;99815.22;;;16.56;79.97
80654;BME280;70020;45.524;10.240;2023-05-10T12:35:04;99813.41;;;16.57;80.84
80654;BME280;70020;45.524;10.240;2023-05-10T12:37:30;99816.47;;;16.52;81.23
80654;BME280;70020;45.524;10.240;2023-05-10T12:39:55;99817.66;;;16.40;78.84
80654;BME280;70020;45.524;10.240;2023-05-10T12:42:21;99816.56;;;16.25;78.95
80654;BME280;70020;45.524;10.240;2023-05-10T12:44:48;99815.63;;;16.16;79.94
80654;BME280;70020;45.524;10.240;2023-05-10T12:47:13;99817.38;;;16.08;80.15
80654;BME280;70020;45.524;10.240;2023-05-10T12:49:39;99819.16;;;16.07;80.29
80654;BME280;70020;45.524;10.240;2023-05-10T12:52:05;99822.44;;;16.09;80.88
80654;BME280;70020;45.524;10.240;2023-05-10T12:54:30;99828.31;;;16.11;80.00
80654;BME280;70020;45.524;10.240;2023-05-10T12:56:56;99829.31;;;16.10;81.29
80654;BME280;70020;45.524;10.240;2023-05-10T12:59:22;99829.22;;;16.20;81.53
80654;BME280;70020;45.524;10.240;2023-05-10T13:01:47;99832.13;;;16.17;81.02
80654;BME280;70020;45.524;10.240;2023-05-10T13:04:13;99825.41;;;16.14;80.12
80654;BME280;70020;45.524;10.240;2023-05-10T13:06:39;99829.69;;;16.15;81.09
80654;BME280;70020;45.524;10.240;2023-05-10T13:09:05;99825.69;;;16.11;79.75
80654;BME280;70020;45.524;10.240;2023-05-10T13:11:31;99816.53;;;16.07;80.67
80654;BME280;70020;45.524;10.240;2023-05-10T13:13:57;99819.97;;;16.08;81.11
80654;BME280;70020;45.524;10.240;2023-05-10T13:16:23;99828.91;;;16.05;81.18
80654;BME280;70020;45.524;10.240;2023-05-10T13:18:49;99820.13;;;16.06;80.12
80654;BME280;70020;45.524;10.240;2023-05-10T13:21:14;99825.47;;;16.05;81.78
80654;BME280;70020;45.524;10.240;2023-05-10T13:23:40;99814.38;;;16.03;82.22
80654;BME280;70020;45.524;10.240;2023-05-10T13:26:06;99825.19;;;16.08;82.23
80654;BME280;70020;45.524;10.240;2023-05-10T13:28:32;99814.97;;;15.97;80.05
80654;BME280;70020;45.524;10.240;2023-05-10T13:30:58;99813.41;;;16.04;81.53
80654;BME280;70020;45.524;10.240;2023-05-10T13:33:25;99817.06;;;16.11;82.52
80654;BME280;70020;45.524;10.240;2023-05-10T13:35:51;99811.84;;;16.11;81.43